createdAt,value
2022-10-08T00:01:35.000Z,42.22
2022-10-08T00:04:04.664Z,41.05
2022-10-08T00:06:38.854Z,43.10
2022-10-08T00:09:10.529Z,37.73
2022-10-08T00:12:30.430Z,36.67
2022-10-08T00:14:59.986Z,37.85
2022-10-08T00:17:29.587Z,46.80
2022-10-08T00:19:58.836Z,40.42
2022-10-08T00:22:28.132Z,42.00
2022-10-08T00:24:58.168Z,37.45
2022-10-08T00:27:27.801Z,40.28
2022-10-08T00:29:57.543Z,45.85
2022-10-08T00:32:26.723Z,43.63
2022-10-08T00:34:56.203Z,51.03
2022-10-08T00:37:27.786Z,41.42
2022-10-08T00:39:57.746Z,40.10
2022-10-08T00:42:27.155Z,48.95
2022-10-08T00:44:58.237Z,39.75
2022-10-08T00:47:33.664Z,41.83
2022-10-08T00:50:27.396Z,39.73
2022-10-08T00:53:06.274Z,40.67
2022-10-08T00:55:41.207Z,37.85
2022-10-08T00:58:23.814Z,34.95
2022-10-08T01:00:53.928Z,33.80
2022-10-08T01:03:23.534Z,46.55
2022-10-08T01:06:31.332Z,37.95
2022-10-08T01:09:15.234Z,37.13
2022-10-08T01:11:52.477Z,39.70
2022-10-08T01:15:09.728Z,40.88
2022-10-08T01:18:08.749Z,42.92
2022-10-08T01:20:52.751Z,34.22
2022-10-08T01:23:42.144Z,36.58
2022-10-08T01:26:30.513Z,31.10
2022-10-08T01:29:36.571Z,27.38
2022-10-08T01:32:14.744Z,35.65
2022-10-08T01:35:00.766Z,26.30
2022-10-08T01:40:11.551Z,25.40
2022-10-08T01:42:42.613Z,27.60
2022-10-08T01:45:17.455Z,24.52
2022-10-08T01:47:49.518Z,27.15
2022-10-08T01:50:39.883Z,26.50
2022-10-08T01:53:14.309Z,22.60
2022-10-08T01:55:49.795Z,28.80
2022-10-08T01:58:32.141Z,22.67
2022-10-08T02:01:11.484Z,30.38
2022-10-08T02:04:01.463Z,26.25
2022-10-08T02:06:36.965Z,24.27
2022-10-08T02:09:06.369Z,30.30
2022-10-08T02:11:36.833Z,28.63
2022-10-08T02:14:07.574Z,27.15
2022-10-08T02:16:42.755Z,29.33
2022-10-08T02:19:20.483Z,34.70
2022-10-08T02:21:53.565Z,36.10
2022-10-08T02:24:34.925Z,34.30
2022-10-08T02:27:08.888Z,37.17
2022-10-08T02:29:46.905Z,33.22
2022-10-08T02:32:31.151Z,50.33
2022-10-08T02:35:13.906Z,57.28
2022-10-08T02:37:53.842Z,42.58
2022-10-08T02:40:24.216Z,42.88
2022-10-08T02:42:59.175Z,43.35
2022-10-08T02:45:58.188Z,44.80
2022-10-08T02:48:34.432Z,41.33
2022-10-08T02:51:12.007Z,44.58
2022-10-08T02:53:42.977Z,45.35
2022-10-08T02:57:07.033Z,41.55
2022-10-08T02:59:39.128Z,49.67
2022-10-08T03:02:11.964Z,49.28
2022-10-08T03:04:53.210Z,47.65
2022-10-08T03:07:25.089Z,47.15
2022-10-08T03:09:56.533Z,52.17
2022-10-08T03:12:27.102Z,46.38
2022-10-08T03:14:56.813Z,48.35
2022-10-08T03:17:32.725Z,47.05
2022-10-08T03:20:11.196Z,47.35
2022-10-08T03:22:46.876Z,52.70
2022-10-08T03:25:21.921Z,51.10
2022-10-08T03:27:52.430Z,50.70
2022-10-08T03:30:30.208Z,52.22
2022-10-08T03:33:07.603Z,50.58
2022-10-08T03:35:49.159Z,49.67
2022-10-08T03:38:18.405Z,48.97
2022-10-08T03:41:00.002Z,59.28
2022-10-08T03:43:34.839Z,54.67
2022-10-08T03:46:29.250Z,48.90
2022-10-08T03:48:59.169Z,51.78
2022-10-08T03:51:28.626Z,52.08
2022-10-08T03:53:58.671Z,56.88
2022-10-08T03:56:28.537Z,44.33
2022-10-08T03:59:00.300Z,44.53
2022-10-08T04:01:30.282Z,49.83
2022-10-08T04:03:59.452Z,54.22
2022-10-08T04:06:28.696Z,46.30
2022-10-08T04:09:01.941Z,48.20
2022-10-08T04:11:32.182Z,44.88
2022-10-08T04:14:02.113Z,55.47
2022-10-08T04:16:31.275Z,48.25
2022-10-08T04:19:00.332Z,45.25
2022-10-08T04:21:32.120Z,50.95
2022-10-08T04:24:01.426Z,45.15
2022-10-08T04:26:30.494Z,56.83
2022-10-08T04:28:59.809Z,47.38
2022-10-08T04:31:29.073Z,46.08
2022-10-08T04:33:58.253Z,47.20
2022-10-08T04:36:27.433Z,48.58
2022-10-08T04:38:56.685Z,46.67
2022-10-08T04:41:27.411Z,46.50
2022-10-08T04:44:05.148Z,52.10
2022-10-08T04:46:34.431Z,48.85
2022-10-08T04:49:03.877Z,50.38
2022-10-08T04:51:33.632Z,42.38
2022-10-08T04:54:02.994Z,51.15
2022-10-08T04:56:33.425Z,51.72
2022-10-08T04:59:05.170Z,47.38
2022-10-08T05:01:34.983Z,51.40
2022-10-08T05:04:04.318Z,53.25
2022-10-08T05:06:33.666Z,42.30
2022-10-08T05:09:05.595Z,120.13
2022-10-08T05:11:35.737Z,89.78
2022-10-08T05:14:05.818Z,83.70
2022-10-08T05:16:35.305Z,54.72
2022-10-08T05:19:05.613Z,47.15
2022-10-08T05:21:34.893Z,54.20
2022-10-08T05:24:07.807Z,43.65
2022-10-08T05:26:58.568Z,46.88
2022-10-08T05:29:30.510Z,47.83
2022-10-08T05:31:59.929Z,40.55
2022-10-08T05:34:29.367Z,42.72
2022-10-08T05:36:58.636Z,51.75
2022-10-08T05:39:28.368Z,42.17
2022-10-08T05:41:58.115Z,39.88
2022-10-08T05:44:27.277Z,41.72
2022-10-08T05:46:56.454Z,44.47
2022-10-08T05:49:26.197Z,42.05
2022-10-08T05:51:55.754Z,42.40
2022-10-08T05:54:24.870Z,43.05
2022-10-08T05:56:54.300Z,39.83
2022-10-08T05:59:25.626Z,41.42
2022-10-08T06:01:54.881Z,41.58
2022-10-08T06:04:24.404Z,39.90
2022-10-08T06:06:53.552Z,40.15
2022-10-08T06:09:23.053Z,36.97
2022-10-08T06:11:52.512Z,46.38
2022-10-08T06:14:21.873Z,36.88
2022-10-08T06:16:50.933Z,40.13
2022-10-08T06:19:20.015Z,34.65
2022-10-08T06:21:50.239Z,37.25
2022-10-08T06:24:19.542Z,37.83
2022-10-08T06:26:48.931Z,42.78
2022-10-08T06:29:19.623Z,32.70
2022-10-08T06:31:49.248Z,42.25
2022-10-08T06:34:18.409Z,35.85
2022-10-08T06:36:47.731Z,44.90
2022-10-08T06:39:18.687Z,36.05
2022-10-08T06:41:48.094Z,40.50
2022-10-08T06:44:19.864Z,36.03
2022-10-08T06:46:49.216Z,39.80
2022-10-08T06:49:19.185Z,32.88
2022-10-08T06:51:48.555Z,32.97
2022-10-08T06:54:18.132Z,34.47
2022-10-08T06:56:47.200Z,33.13
2022-10-08T06:59:16.217Z,34.45
2022-10-08T07:01:46.219Z,34.70
2022-10-08T07:04:15.515Z,36.53
2022-10-08T07:06:44.546Z,39.40
2022-10-08T07:09:14.389Z,40.45
2022-10-08T07:11:43.493Z,34.60
2022-10-08T07:14:12.575Z,31.42
2022-10-08T07:16:41.792Z,32.70
2022-10-08T07:19:10.968Z,36.03
2022-10-08T07:21:41.413Z,33.95
2022-10-08T07:24:10.609Z,30.40
2022-10-08T07:26:39.607Z,31.88
2022-10-08T07:29:14.760Z,36.53
2022-10-08T07:31:44.195Z,36.25
2022-10-08T07:34:14.613Z,35.55
2022-10-08T07:36:43.957Z,35.45
2022-10-08T07:39:15.595Z,37.20
2022-10-08T07:41:44.735Z,35.22
2022-10-08T07:44:15.024Z,37.30
2022-10-08T07:46:52.387Z,31.38
2022-10-08T07:49:22.023Z,37.83
2022-10-08T07:51:51.114Z,33.03
2022-10-08T07:54:21.215Z,36.95
2022-10-08T07:56:50.413Z,35.22
2022-10-08T07:59:19.498Z,34.67
2022-10-08T08:01:48.842Z,37.80
2022-10-08T08:04:18.510Z,39.38
2022-10-08T08:06:49.508Z,35.00
2022-10-08T08:09:19.382Z,32.20
2022-10-08T08:11:50.289Z,39.30
2022-10-08T08:14:21.296Z,33.25
2022-10-08T08:16:50.754Z,33.58
2022-10-08T08:19:19.924Z,34.97
2022-10-08T08:21:49.153Z,35.38
2022-10-08T08:24:18.222Z,34.33
2022-10-08T08:26:47.442Z,36.58
2022-10-08T08:29:19.107Z,36.53
2022-10-08T08:31:50.179Z,36.15
2022-10-08T08:34:21.834Z,38.03
2022-10-08T08:36:52.186Z,34.08
2022-10-08T08:39:30.373Z,37.33
2022-10-08T08:42:18.453Z,36.97
2022-10-08T08:45:41.576Z,39.17
2022-10-08T08:48:29.850Z,34.45
2022-10-08T08:51:00.599Z,36.22
2022-10-08T08:53:29.911Z,31.05
2022-10-08T08:56:04.421Z,28.55
2022-10-08T08:58:36.025Z,34.58
2022-10-08T09:01:11.215Z,28.08
2022-10-08T09:03:42.198Z,32.58
2022-10-08T09:06:16.434Z,28.38
2022-10-08T09:08:57.726Z,28.92
2022-10-08T09:11:29.211Z,28.60
2022-10-08T09:14:27.395Z,35.60
2022-10-08T09:16:58.172Z,31.23
2022-10-08T09:19:27.329Z,32.05
2022-10-08T09:21:56.706Z,36.22
2022-10-08T09:24:26.852Z,32.92
2022-10-08T09:26:57.479Z,32.33
2022-10-08T09:29:35.817Z,30.30
2022-10-08T09:32:05.455Z,31.23
2022-10-08T09:34:35.075Z,29.10
2022-10-08T09:37:05.807Z,29.48
2022-10-08T09:39:38.252Z,28.73
2022-10-08T09:42:13.274Z,31.00
2022-10-08T09:44:51.572Z,26.65
2022-10-08T09:47:25.846Z,29.20
2022-10-08T09:50:17.160Z,29.40
2022-10-08T09:52:49.068Z,28.20
2022-10-08T09:55:26.945Z,34.78
2022-10-08T09:58:04.950Z,30.90
2022-10-08T10:00:36.936Z,29.75
2022-10-08T10:03:09.309Z,32.47
2022-10-08T10:05:38.874Z,31.52
2022-10-08T10:08:08.068Z,31.75
2022-10-08T10:10:39.585Z,29.27
2022-10-08T10:13:34.484Z,30.35
2022-10-08T10:16:11.297Z,34.70
2022-10-08T10:18:55.326Z,36.55
2022-10-08T10:21:42.990Z,31.67
2022-10-08T10:24:30.147Z,31.10
2022-10-08T10:29:44.004Z,29.42
2022-10-08T10:32:21.797Z,31.10
2022-10-08T10:35:03.348Z,33.53
2022-10-08T10:37:42.891Z,32.05
2022-10-08T10:40:18.444Z,33.13
2022-10-08T10:43:18.073Z,35.05
2022-10-08T10:45:53.495Z,32.80
2022-10-08T10:48:22.876Z,33.90
2022-10-08T10:51:20.471Z,38.28
2022-10-08T10:56:50.400Z,31.63
2022-10-08T10:59:41.050Z,31.90
2022-10-08T11:02:28.185Z,28.35
2022-10-08T11:07:46.375Z,33.33
2022-10-08T11:10:31.813Z,34.45
2022-10-08T11:13:27.608Z,37.88
2022-10-08T11:16:32.088Z,37.92
2022-10-08T11:19:04.450Z,33.88
2022-10-08T11:21:52.297Z,28.40
2022-10-08T11:24:41.554Z,33.55
2022-10-08T11:27:41.873Z,32.05
2022-10-08T11:30:34.818Z,36.45
2022-10-08T11:33:05.764Z,35.33
2022-10-08T11:36:02.259Z,32.25
2022-10-08T11:38:48.345Z,34.60
2022-10-08T11:41:31.378Z,32.75
2022-10-08T11:44:03.805Z,28.50
2022-10-08T11:46:35.290Z,31.15
2022-10-08T11:49:16.423Z,35.45
2022-10-08T11:51:53.116Z,36.30
2022-10-08T11:57:14.306Z,32.35
2022-10-08T11:59:57.188Z,34.30
2022-10-08T12:02:37.401Z,34.70
2022-10-08T12:05:51.791Z,35.75
2022-10-08T12:08:53.851Z,36.38
2022-10-08T12:11:41.266Z,32.60
2022-10-08T12:14:13.509Z,35.28
2022-10-08T12:17:00.029Z,35.95
2022-10-08T12:19:36.057Z,38.13
2022-10-08T12:22:15.501Z,43.22
2022-10-08T12:24:50.319Z,46.15
2022-10-08T12:27:19.718Z,41.30
2022-10-08T12:30:14.706Z,44.38
2022-10-08T12:32:43.761Z,40.13
2022-10-08T12:35:32.743Z,44.22
2022-10-08T12:38:17.104Z,35.70
2022-10-08T12:41:02.919Z,41.03
2022-10-08T12:43:54.390Z,40.45
2022-10-08T12:46:41.766Z,39.47
2022-10-08T12:49:20.358Z,39.65
2022-10-08T12:52:00.254Z,44.70
2022-10-08T12:54:31.517Z,46.30
2022-10-08T12:57:08.303Z,37.80
2022-10-08T12:59:41.099Z,40.80
2022-10-08T13:02:39.368Z,35.53
2022-10-08T13:05:29.228Z,34.22
2022-10-08T13:07:58.905Z,37.58
2022-10-08T13:10:30.372Z,37.63
2022-10-08T13:13:08.158Z,40.78
2022-10-08T13:15:37.321Z,38.92
2022-10-08T13:18:23.214Z,34.20
2022-10-08T13:21:10.519Z,45.10
2022-10-08T13:23:42.622Z,35.85
2022-10-08T13:26:37.741Z,38.08
2022-10-08T13:29:24.838Z,37.97
2022-10-08T13:31:58.610Z,42.60
2022-10-08T13:34:42.586Z,39.58
2022-10-08T13:37:14.455Z,37.75
2022-10-08T13:39:51.645Z,39.38
2022-10-08T13:42:22.917Z,41.70
2022-10-08T13:44:52.721Z,39.20
2022-10-08T13:47:23.400Z,36.90
2022-10-08T13:50:01.203Z,41.42
2022-10-08T13:52:33.435Z,38.67
2022-10-08T13:55:07.547Z,41.03
2022-10-08T13:57:36.671Z,38.00
2022-10-08T14:00:06.608Z,45.05
2022-10-08T14:02:36.091Z,40.80
2022-10-08T14:05:05.321Z,37.00
2022-10-08T14:07:36.641Z,34.78
2022-10-08T14:10:06.555Z,31.75
2022-10-08T14:12:36.561Z,38.22
2022-10-08T14:15:06.086Z,38.95
2022-10-08T14:17:35.220Z,41.45
2022-10-08T14:20:04.590Z,41.78
2022-10-08T14:22:39.531Z,40.22
2022-10-08T14:25:19.259Z,37.05
2022-10-08T14:27:48.872Z,42.80
2022-10-08T14:30:19.249Z,38.63
2022-10-08T14:32:48.353Z,42.22
2022-10-08T14:35:17.940Z,38.03
2022-10-08T14:37:47.326Z,41.92
2022-10-08T14:40:19.856Z,43.55
2022-10-08T14:42:49.667Z,42.17
2022-10-08T14:45:19.013Z,40.53
2022-10-08T14:47:48.101Z,51.60
2022-10-08T14:50:17.321Z,43.55
2022-10-08T14:52:46.817Z,43.40
2022-10-08T14:55:16.369Z,44.15
2022-10-08T14:57:45.455Z,43.03
2022-10-08T15:00:15.209Z,46.70
2022-10-08T15:02:44.929Z,40.95
2022-10-08T15:05:14.147Z,44.00
2022-10-08T15:07:43.207Z,40.78
2022-10-08T15:10:12.325Z,44.65
2022-10-08T15:12:41.475Z,44.22
2022-10-08T15:15:11.603Z,42.72
2022-10-08T15:17:40.706Z,45.88
2022-10-08T15:20:10.340Z,45.55
2022-10-08T15:22:39.628Z,43.63
2022-10-08T15:25:09.054Z,41.80
2022-10-08T15:27:38.213Z,40.33
2022-10-08T15:30:07.707Z,41.00
2022-10-08T15:32:38.113Z,46.13
2022-10-08T15:35:07.537Z,41.55
2022-10-08T15:37:36.612Z,45.38
2022-10-08T15:40:07.340Z,46.67
2022-10-08T15:42:36.453Z,44.97
2022-10-08T15:45:06.003Z,39.08
2022-10-08T15:47:35.198Z,41.80
2022-10-08T15:50:04.327Z,33.20
2022-10-08T15:52:34.197Z,40.40
2022-10-08T15:55:03.597Z,34.25
2022-10-08T15:57:32.674Z,34.70
2022-10-08T16:00:01.756Z,35.40
2022-10-08T16:02:40.680Z,32.92
2022-10-08T16:05:10.466Z,34.22
2022-10-08T16:07:39.550Z,37.90
2022-10-08T16:10:09.255Z,35.67
2022-10-08T16:12:38.392Z,36.17
2022-10-08T16:15:07.950Z,36.30
2022-10-08T16:17:37.148Z,37.90
2022-10-08T16:20:07.023Z,33.00
2022-10-08T16:22:36.189Z,35.60
2022-10-08T16:25:05.569Z,38.00
2022-10-08T16:27:34.754Z,35.47
2022-10-08T16:30:05.823Z,32.50
2022-10-08T16:32:34.910Z,34.42
2022-10-08T16:35:04.424Z,35.47
2022-10-08T16:37:33.542Z,34.40
2022-10-08T16:40:04.791Z,37.08
2022-10-08T16:42:34.001Z,35.08
2022-10-08T16:45:03.203Z,39.67
2022-10-08T16:47:32.451Z,30.40
2022-10-08T16:50:01.513Z,31.98
2022-10-08T16:52:30.787Z,36.78
2022-10-08T16:54:59.811Z,35.22
2022-10-08T16:57:29.363Z,32.88
2022-10-08T17:00:00.899Z,35.67
2022-10-08T17:02:30.138Z,34.97
2022-10-08T17:04:59.212Z,32.92
2022-10-08T17:07:28.570Z,39.10
2022-10-08T17:09:57.667Z,38.42
2022-10-08T17:12:26.758Z,35.60
2022-10-08T17:14:55.843Z,37.58
2022-10-08T17:17:24.907Z,36.70
2022-10-08T17:19:54.001Z,41.10
2022-10-08T17:22:23.058Z,36.85
2022-10-08T17:24:52.336Z,37.95
2022-10-08T17:27:21.349Z,36.55
2022-10-08T17:29:50.502Z,36.80
2022-10-08T17:32:19.554Z,40.28
2022-10-08T17:34:48.683Z,39.30
2022-10-08T17:37:17.733Z,37.88
2022-10-08T17:39:46.858Z,40.63
2022-10-08T17:42:15.928Z,40.20
2022-10-08T17:44:45.138Z,39.00
2022-10-08T17:47:14.345Z,38.92
2022-10-08T17:49:43.939Z,37.45
2022-10-08T17:52:13.293Z,38.95
2022-10-08T17:54:42.400Z,38.95
2022-10-08T17:57:11.484Z,35.80
2022-10-08T17:59:40.468Z,34.88
2022-10-08T18:02:10.186Z,41.58
2022-10-08T18:04:39.371Z,38.10
2022-10-08T18:07:08.481Z,36.95
2022-10-08T18:09:38.249Z,39.53
2022-10-08T18:12:08.020Z,39.22
2022-10-08T18:14:37.305Z,40.42
2022-10-08T18:17:07.465Z,44.22
2022-10-08T18:19:36.893Z,37.53
2022-10-08T18:22:06.123Z,41.90
2022-10-08T18:24:36.489Z,42.10
2022-10-08T18:27:05.922Z,39.75
2022-10-08T18:29:35.327Z,44.00
2022-10-08T18:32:04.747Z,48.10
2022-10-08T18:34:33.879Z,43.65
2022-10-08T18:37:03.207Z,44.80
2022-10-08T18:39:32.362Z,48.55
2022-10-08T18:42:01.886Z,47.35
2022-10-08T18:44:31.414Z,52.70
2022-10-08T18:47:05.116Z,59.67
2022-10-08T18:49:35.165Z,72.95
2022-10-08T18:52:04.687Z,83.90
2022-10-08T18:54:33.861Z,82.85
2022-10-08T18:57:03.079Z,89.28
2022-10-08T18:59:33.043Z,96.63
2022-10-08T19:02:02.848Z,82.78
2022-10-08T19:04:32.081Z,109.25
2022-10-08T19:07:01.282Z,69.82
2022-10-08T19:09:30.742Z,85.13
2022-10-08T19:12:01.705Z,75.28
2022-10-08T19:14:31.184Z,71.30
2022-10-08T19:17:01.134Z,75.53
2022-10-08T19:19:34.405Z,81.65
2022-10-08T19:22:03.567Z,81.38
2022-10-08T19:24:34.163Z,77.97
2022-10-08T19:27:05.635Z,77.95
2022-10-08T19:29:36.836Z,71.28
2022-10-08T19:32:06.044Z,82.43
2022-10-08T19:34:35.253Z,88.35
2022-10-08T19:37:04.371Z,89.78
2022-10-08T19:39:34.938Z,92.78
2022-10-08T19:42:04.275Z,96.15
2022-10-08T19:44:33.389Z,94.20
2022-10-08T19:47:04.125Z,96.03
2022-10-08T19:49:33.372Z,100.10
2022-10-08T19:52:02.641Z,109.78
2022-10-08T19:54:31.719Z,113.97
2022-10-08T19:57:00.773Z,107.40
2022-10-08T19:59:29.977Z,107.30
2022-10-08T20:01:59.224Z,102.82
2022-10-08T20:04:28.284Z,103.82
2022-10-08T20:06:57.406Z,100.97
2022-10-08T20:09:28.328Z,111.35
2022-10-08T20:11:57.573Z,105.40
2022-10-08T20:14:26.904Z,99.93
2022-10-08T20:16:56.214Z,97.18
2022-10-08T20:19:25.311Z,96.45
2022-10-08T20:21:58.861Z,96.80
2022-10-08T20:24:28.111Z,107.78
2022-10-08T20:26:57.169Z,103.22
2022-10-08T20:29:30.728Z,99.15
2022-10-08T20:32:01.578Z,100.78
2022-10-08T20:34:33.357Z,100.38
2022-10-08T20:37:03.346Z,98.30
2022-10-08T20:39:32.435Z,105.57
2022-10-08T20:42:01.613Z,106.60
2022-10-08T20:44:30.712Z,101.00
2022-10-08T20:47:01.349Z,98.68
2022-10-08T20:49:34.887Z,104.68
2022-10-08T20:52:05.173Z,100.28
2022-10-08T20:54:34.594Z,101.10
2022-10-08T20:57:04.226Z,98.20
2022-10-08T20:59:34.933Z,109.85
2022-10-08T21:02:06.047Z,97.70
2022-10-08T21:04:35.267Z,104.85
2022-10-08T21:07:04.293Z,101.57
2022-10-08T21:09:33.557Z,105.68
2022-10-08T21:12:02.610Z,107.80
2022-10-08T21:14:32.451Z,96.47
2022-10-08T21:17:01.820Z,103.03
2022-10-08T21:19:30.869Z,95.25
2022-10-08T21:22:00.028Z,91.22
2022-10-08T21:24:29.222Z,91.78
2022-10-08T21:26:58.477Z,83.65
2022-10-08T21:29:27.624Z,79.60
2022-10-08T21:31:56.772Z,70.72
2022-10-08T21:34:25.909Z,66.35
2022-10-08T21:36:55.076Z,74.57
2022-10-08T21:39:24.155Z,69.97
2022-10-08T21:41:55.705Z,73.85
2022-10-08T21:44:24.832Z,79.53
2022-10-08T21:46:53.840Z,67.75
2022-10-08T21:49:23.148Z,67.20
2022-10-08T21:51:53.255Z,61.85
2022-10-08T21:54:22.360Z,77.13
2022-10-08T21:56:51.363Z,101.63
2022-10-08T21:59:20.821Z,104.78
2022-10-08T22:01:52.196Z,96.30
2022-10-08T22:04:24.297Z,71.38
2022-10-08T22:06:56.072Z,74.65
2022-10-08T22:09:31.272Z,82.25
2022-10-08T22:12:01.561Z,91.32
2022-10-08T22:14:30.869Z,91.55
2022-10-08T22:17:00.731Z,65.15
2022-10-08T22:19:29.791Z,64.60
2022-10-08T22:21:58.946Z,63.15
2022-10-08T22:24:28.219Z,75.25
2022-10-08T22:26:57.269Z,80.55
2022-10-08T22:29:26.331Z,81.13
2022-10-08T22:31:55.449Z,79.80
2022-10-08T22:34:24.538Z,58.42
2022-10-08T22:36:53.553Z,62.03
2022-10-08T22:39:22.765Z,47.78
2022-10-08T22:41:51.914Z,51.35
2022-10-08T22:44:21.293Z,46.15
2022-10-08T22:46:50.367Z,47.65
2022-10-08T22:49:19.520Z,63.33
2022-10-08T22:51:48.612Z,82.07
2022-10-08T22:54:18.130Z,46.00
2022-10-08T22:56:47.186Z,55.45
2022-10-08T22:59:16.270Z,55.35
2022-10-08T23:01:45.376Z,51.63
2022-10-08T23:04:14.607Z,53.67
2022-10-08T23:06:43.726Z,41.35
2022-10-08T23:09:13.903Z,40.75
2022-10-08T23:11:43.142Z,75.03
2022-10-08T23:14:12.202Z,74.30
2022-10-08T23:16:41.424Z,89.70
2022-10-08T23:19:12.110Z,72.65
2022-10-08T23:21:44.340Z,67.90
2022-10-08T23:24:13.828Z,71.47
2022-10-08T23:26:42.932Z,68.63
2022-10-08T23:29:12.331Z,68.78
2022-10-08T23:31:41.460Z,61.00
2022-10-08T23:34:11.161Z,58.30
2022-10-08T23:36:43.865Z,67.22
2022-10-08T23:39:17.988Z,65.55
2022-10-08T23:41:47.349Z,60.13
2022-10-08T23:44:16.413Z,60.10
2022-10-08T23:46:45.560Z,60.13
2022-10-08T23:49:14.701Z,49.70
2022-10-08T23:51:44.158Z,50.90
2022-10-08T23:54:13.480Z,53.90
2022-10-08T23:56:42.535Z,56.40
2022-10-08T23:59:11.659Z,65.65
